sensor_id;sensor_type;location;lat;lon;timestamp;P1;durP1;ratioP1;P2;durP2;ratioP2
5351;SDS011;2698;51.454;6.736;2022-11-28T00:01:00;8.00;;;5.77;;
5351;SDS011;2698;51.454;6.736;2022-11-28T00:03:29;10.93;;;6.50;;
5351;SDS011;2698;51.454;6.736;2022-11-28T00:06:01;10.40;;;6.83;;
5351;SDS011;2698;51.454;6.736;2022-11-28T00:08:28;13.70;;;6.33;;
5351;SDS011;2698;51.454;6.736;2022-11-28T00:10:55;14.10;;;6.57;;
5351;SDS011;2698;51.454;6.736;2022-11-28T00:13:21;13.60;;;6.10;;
5351;SDS011;2698;51.454;6.736;2022-11-28T00:15:53;10.67;;;5.50;;
5351;SDS011;2698;51.454;6.736;2022-11-28T00:18:22;7.77;;;6.53;;
5351;SDS011;2698;51.454;6.736;2022-11-28T00:20:49;8.40;;;6.20;;
5351;SDS011;2698;51.454;6.736;2022-11-28T00:23:16;12.10;;;5.97;;
5351;SDS011;2698;51.454;6.736;2022-11-28T00:25:43;8.23;;;6.23;;
5351;SDS011;2698;51.454;6.736;2022-11-28T00:28:09;6.60;;;5.80;;
5351;SDS011;2698;51.454;6.736;2022-11-28T00:30:36;9.13;;;6.87;;
5351;SDS011;2698;51.454;6.736;2022-11-28T00:33:03;8.40;;;6.20;;
5351;SDS011;2698;51.454;6.736;2022-11-28T00:35:31;10.80;;;5.53;;
5351;SDS011;2698;51.454;6.736;2022-11-28T00:37:58;7.47;;;5.93;;
5351;SDS011;2698;51.454;6.736;2022-11-28T00:40:25;7.90;;;6.47;;
5351;SDS011;2698;51.454;6.736;2022-11-28T00:42:52;6.13;;;5.57;;
5351;SDS011;2698;51.454;6.736;2022-11-28T00:45:18;7.90;;;5.50;;
5351;SDS011;2698;51.454;6.736;2022-11-28T00:47:45;7.63;;;5.50;;
5351;SDS011;2698;51.454;6.736;2022-11-28T00:50:13;9.10;;;5.60;;
5351;SDS011;2698;51.454;6.736;2022-11-28T00:52:41;10.10;;;6.90;;
5351;SDS011;2698;51.454;6.736;2022-11-28T00:55:08;9.50;;;5.43;;
5351;SDS011;2698;51.454;6.736;2022-11-28T00:57:35;8.37;;;6.20;;
5351;SDS011;2698;51.454;6.736;2022-11-28T01:00:02;8.90;;;5.67;;
5351;SDS011;2698;51.454;6.736;2022-11-28T01:02:29;8.27;;;6.50;;
5351;SDS011;2698;51.454;6.736;2022-11-28T01:04:56;6.97;;;5.20;;
5351;SDS011;2698;51.454;6.736;2022-11-28T01:07:23;5.57;;;5.00;;
5351;SDS011;2698;51.454;6.736;2022-11-28T01:09:53;6.90;;;5.67;;
5351;SDS011;2698;51.454;6.736;2022-11-28T01:12:20;7.97;;;5.67;;
5351;SDS011;2698;51.454;6.736;2022-11-28T01:14:47;7.00;;;5.50;;
5351;SDS011;2698;51.454;6.736;2022-11-28T01:17:14;7.90;;;5.90;;
5351;SDS011;2698;51.454;6.736;2022-11-28T01:19:41;6.40;;;5.80;;
5351;SDS011;2698;51.454;6.736;2022-11-28T01:22:08;8.00;;;6.10;;
5351;SDS011;2698;51.454;6.736;2022-11-28T01:24:34;10.50;;;5.73;;
5351;SDS011;2698;51.454;6.736;2022-11-28T01:27:03;7.50;;;6.20;;
5351;SDS011;2698;51.454;6.736;2022-11-28T01:29:29;9.50;;;5.60;;
5351;SDS011;2698;51.454;6.736;2022-11-28T01:31:56;7.10;;;5.60;;
5351;SDS011;2698;51.454;6.736;2022-11-28T01:34:23;9.17;;;6.57;;
5351;SDS011;2698;51.454;6.736;2022-11-28T01:36:49;11.43;;;6.10;;
5351;SDS011;2698;51.454;6.736;2022-11-28T01:39:16;9.47;;;6.90;;
5351;SDS011;2698;51.454;6.736;2022-11-28T01:41:43;7.23;;;5.63;;
5351;SDS011;2698;51.454;6.736;2022-11-28T01:47:11;6.13;;;5.60;;
5351;SDS011;2698;51.454;6.736;2022-11-28T01:49:39;7.70;;;5.53;;
5351;SDS011;2698;51.454;6.736;2022-11-28T01:52:07;6.73;;;6.03;;
5351;SDS011;2698;51.454;6.736;2022-11-28T01:54:37;11.20;;;6.50;;
5351;SDS011;2698;51.454;6.736;2022-11-28T01:57:07;6.00;;;5.50;;
5351;SDS011;2698;51.454;6.736;2022-11-28T01:59:37;6.10;;;5.50;;
5351;SDS011;2698;51.454;6.736;2022-11-28T02:02:08;7.50;;;6.10;;
5351;SDS011;2698;51.454;6.736;2022-11-28T02:04:43;6.00;;;5.20;;
5351;SDS011;2698;51.454;6.736;2022-11-28T02:07:11;12.20;;;6.20;;
5351;SDS011;2698;51.454;6.736;2022-11-28T02:09:39;8.80;;;6.40;;
5351;SDS011;2698;51.454;6.736;2022-11-28T02:12:08;7.70;;;5.37;;
5351;SDS011;2698;51.454;6.736;2022-11-28T02:14:49;8.57;;;5.23;;
5351;SDS011;2698;51.454;6.736;2022-11-28T02:17:29;5.70;;;4.50;;
5351;SDS011;2698;51.454;6.736;2022-11-28T02:20:22;8.33;;;5.33;;
5351;SDS011;2698;51.454;6.736;2022-11-28T02:23:02;9.63;;;6.67;;
5351;SDS011;2698;51.454;6.736;2022-11-28T02:25:47;8.63;;;6.10;;
5351;SDS011;2698;51.454;6.736;2022-11-28T02:28:49;6.33;;;5.73;;
5351;SDS011;2698;51.454;6.736;2022-11-28T02:31:34;10.87;;;6.43;;
5351;SDS011;2698;51.454;6.736;2022-11-28T02:34:19;6.63;;;5.93;;
5351;SDS011;2698;51.454;6.736;2022-11-28T02:36:54;8.43;;;6.57;;
5351;SDS011;2698;51.454;6.736;2022-11-28T02:39:28;11.77;;;6.50;;
5351;SDS011;2698;51.454;6.736;2022-11-28T02:42:04;9.90;;;6.57;;
5351;SDS011;2698;51.454;6.736;2022-11-28T02:44:39;8.00;;;6.93;;
5351;SDS011;2698;51.454;6.736;2022-11-28T02:47:14;13.20;;;7.30;;
5351;SDS011;2698;51.454;6.736;2022-11-28T02:49:48;11.70;;;7.40;;
5351;SDS011;2698;51.454;6.736;2022-11-28T02:52:21;13.37;;;8.37;;
5351;SDS011;2698;51.454;6.736;2022-11-28T02:54:51;13.33;;;8.57;;
5351;SDS011;2698;51.454;6.736;2022-11-28T02:57:20;13.13;;;7.80;;
5351;SDS011;2698;51.454;6.736;2022-11-28T02:59:48;13.30;;;7.73;;
5351;SDS011;2698;51.454;6.736;2022-11-28T03:02:17;8.63;;;7.03;;
5351;SDS011;2698;51.454;6.736;2022-11-28T03:04:53;16.53;;;8.30;;
5351;SDS011;2698;51.454;6.736;2022-11-28T03:07:27;14.10;;;8.10;;
5351;SDS011;2698;51.454;6.736;2022-11-28T03:10:04;13.50;;;7.97;;
5351;SDS011;2698;51.454;6.736;2022-11-28T03:12:42;14.70;;;9.43;;
5351;SDS011;2698;51.454;6.736;2022-11-28T03:15:17;11.13;;;8.13;;
5351;SDS011;2698;51.454;6.736;2022-11-28T03:17:52;14.27;;;9.40;;
5351;SDS011;2698;51.454;6.736;2022-11-28T03:20:28;15.40;;;7.87;;
5351;SDS011;2698;51.454;6.736;2022-11-28T03:23:05;12.57;;;8.43;;
5351;SDS011;2698;51.454;6.736;2022-11-28T03:25:39;9.50;;;7.80;;
5351;SDS011;2698;51.454;6.736;2022-11-28T03:28:18;12.87;;;8.70;;
5351;SDS011;2698;51.454;6.736;2022-11-28T03:30:49;10.80;;;8.23;;
5351;SDS011;2698;51.454;6.736;2022-11-28T03:33:21;17.83;;;11.20;;
5351;SDS011;2698;51.454;6.736;2022-11-28T03:35:52;19.80;;;11.30;;
5351;SDS011;2698;51.454;6.736;2022-11-28T03:38:26;27.70;;;13.17;;
5351;SDS011;2698;51.454;6.736;2022-11-28T03:40:57;20.43;;;10.77;;
5351;SDS011;2698;51.454;6.736;2022-11-28T03:43:29;16.33;;;9.53;;
5351;SDS011;2698;51.454;6.736;2022-11-28T03:46:02;14.63;;;8.30;;
5351;SDS011;2698;51.454;6.736;2022-11-28T03:48:35;15.63;;;8.43;;
5351;SDS011;2698;51.454;6.736;2022-11-28T03:51:06;11.27;;;9.50;;
5351;SDS011;2698;51.454;6.736;2022-11-28T03:53:38;9.30;;;7.83;;
5351;SDS011;2698;51.454;6.736;2022-11-28T03:56:13;9.17;;;8.13;;
5351;SDS011;2698;51.454;6.736;2022-11-28T03:58:43;11.90;;;9.17;;
5351;SDS011;2698;51.454;6.736;2022-11-28T04:01:17;13.63;;;8.40;;
5351;SDS011;2698;51.454;6.736;2022-11-28T04:03:55;10.27;;;8.60;;
5351;SDS011;2698;51.454;6.736;2022-11-28T04:06:30;10.67;;;8.63;;
5351;SDS011;2698;51.454;6.736;2022-11-28T04:09:04;14.30;;;9.23;;
5351;SDS011;2698;51.454;6.736;2022-11-28T04:11:36;10.10;;;8.00;;
5351;SDS011;2698;51.454;6.736;2022-11-28T04:14:09;11.13;;;8.67;;
5351;SDS011;2698;51.454;6.736;2022-11-28T04:16:44;16.10;;;8.77;;
5351;SDS011;2698;51.454;6.736;2022-11-28T04:19:17;15.10;;;9.20;;
5351;SDS011;2698;51.454;6.736;2022-11-28T04:21:51;14.47;;;9.43;;
5351;SDS011;2698;51.454;6.736;2022-11-28T04:24:24;12.70;;;8.80;;
5351;SDS011;2698;51.454;6.736;2022-11-28T04:26:55;13.47;;;9.60;;
5351;SDS011;2698;51.454;6.736;2022-11-28T04:29:25;12.43;;;8.90;;
5351;SDS011;2698;51.454;6.736;2022-11-28T04:31:58;14.73;;;9.07;;
5351;SDS011;2698;51.454;6.736;2022-11-28T04:34:28;13.53;;;8.67;;
5351;SDS011;2698;51.454;6.736;2022-11-28T04:36:57;10.57;;;8.33;;
5351;SDS011;2698;51.454;6.736;2022-11-28T04:39:26;12.77;;;9.23;;
5351;SDS011;2698;51.454;6.736;2022-11-28T04:41:57;12.03;;;9.07;;
5351;SDS011;2698;51.454;6.736;2022-11-28T04:44:28;14.70;;;9.37;;
5351;SDS011;2698;51.454;6.736;2022-11-28T04:47:00;15.40;;;9.20;;
5351;SDS011;2698;51.454;6.736;2022-11-28T04:49:28;13.80;;;10.10;;
5351;SDS011;2698;51.454;6.736;2022-11-28T04:51:57;13.30;;;10.17;;
5351;SDS011;2698;51.454;6.736;2022-11-28T04:54:32;13.90;;;9.20;;
5351;SDS011;2698;51.454;6.736;2022-11-28T04:57:07;10.50;;;8.63;;
5351;SDS011;2698;51.454;6.736;2022-11-28T04:59:39;9.73;;;8.73;;
5351;SDS011;2698;51.454;6.736;2022-11-28T05:02:07;10.00;;;8.93;;
5351;SDS011;2698;51.454;6.736;2022-11-28T05:04:37;13.10;;;9.43;;
5351;SDS011;2698;51.454;6.736;2022-11-28T05:07:04;11.63;;;9.10;;
5351;SDS011;2698;51.454;6.736;2022-11-28T05:09:33;13.10;;;10.03;;
5351;SDS011;2698;51.454;6.736;2022-11-28T05:12:00;13.10;;;8.50;;
5351;SDS011;2698;51.454;6.736;2022-11-28T05:14:27;11.77;;;7.90;;
5351;SDS011;2698;51.454;6.736;2022-11-28T05:16:54;12.00;;;9.50;;
5351;SDS011;2698;51.454;6.736;2022-11-28T05:19:21;11.60;;;9.43;;
5351;SDS011;2698;51.454;6.736;2022-11-28T05:21:49;12.83;;;8.33;;
5351;SDS011;2698;51.454;6.736;2022-11-28T05:24:17;11.90;;;8.80;;
5351;SDS011;2698;51.454;6.736;2022-11-28T05:26:44;14.07;;;9.20;;
5351;SDS011;2698;51.454;6.736;2022-11-28T05:29:11;13.30;;;10.13;;
5351;SDS011;2698;51.454;6.736;2022-11-28T05:31:38;15.13;;;10.03;;
5351;SDS011;2698;51.454;6.736;2022-11-28T05:34:04;11.27;;;8.97;;
5351;SDS011;2698;51.454;6.736;2022-11-28T05:36:31;11.90;;;9.03;;
5351;SDS011;2698;51.454;6.736;2022-11-28T05:38:59;13.27;;;9.30;;
5351;SDS011;2698;51.454;6.736;2022-11-28T05:41:27;18.30;;;9.67;;
5351;SDS011;2698;51.454;6.736;2022-11-28T05:43:55;18.40;;;10.80;;
5351;SDS011;2698;51.454;6.736;2022-11-28T05:46:23;14.53;;;10.27;;
5351;SDS011;2698;51.454;6.736;2022-11-28T05:48:50;17.73;;;10.40;;
5351;SDS011;2698;51.454;6.736;2022-11-28T05:51:17;10.47;;;8.87;;
5351;SDS011;2698;51.454;6.736;2022-11-28T05:53:44;15.53;;;9.57;;
5351;SDS011;2698;51.454;6.736;2022-11-28T05:56:13;13.00;;;9.87;;
5351;SDS011;2698;51.454;6.736;2022-11-28T05:58:42;13.90;;;9.80;;
5351;SDS011;2698;51.454;6.736;2022-11-28T06:01:10;13.20;;;10.10;;
5351;SDS011;2698;51.454;6.736;2022-11-28T06:03:38;12.80;;;9.47;;
5351;SDS011;2698;51.454;6.736;2022-11-28T06:06:08;10.70;;;9.07;;
5351;SDS011;2698;51.454;6.736;2022-11-28T06:08:38;15.37;;;10.53;;
5351;SDS011;2698;51.454;6.736;2022-11-28T06:11:05;11.00;;;9.30;;
5351;SDS011;2698;51.454;6.736;2022-11-28T06:13:33;10.87;;;9.77;;
5351;SDS011;2698;51.454;6.736;2022-11-28T06:16:00;19.33;;;11.63;;
5351;SDS011;2698;51.454;6.736;2022-11-28T06:18:27;14.97;;;9.90;;
5351;SDS011;2698;51.454;6.736;2022-11-28T06:20:54;13.47;;;9.57;;
5351;SDS011;2698;51.454;6.736;2022-11-28T06:23:21;15.40;;;9.90;;
5351;SDS011;2698;51.454;6.736;2022-11-28T06:25:48;17.20;;;10.23;;
5351;SDS011;2698;51.454;6.736;2022-11-28T06:28:15;15.90;;;10.43;;
5351;SDS011;2698;51.454;6.736;2022-11-28T06:30:43;18.27;;;11.63;;
5351;SDS011;2698;51.454;6.736;2022-11-28T06:33:10;10.10;;;8.80;;
5351;SDS011;2698;51.454;6.736;2022-11-28T06:35:37;15.83;;;10.20;;
5351;SDS011;2698;51.454;6.736;2022-11-28T06:38:04;15.23;;;9.53;;
5351;SDS011;2698;51.454;6.736;2022-11-28T06:40:31;16.83;;;10.23;;
5351;SDS011;2698;51.454;6.736;2022-11-28T06:42:57;15.93;;;10.40;;
5351;SDS011;2698;51.454;6.736;2022-11-28T06:45:24;15.07;;;10.00;;
5351;SDS011;2698;51.454;6.736;2022-11-28T06:47:52;15.33;;;9.90;;
5351;SDS011;2698;51.454;6.736;2022-11-28T06:50:19;16.20;;;11.37;;
5351;SDS011;2698;51.454;6.736;2022-11-28T06:52:46;17.90;;;10.10;;
5351;SDS011;2698;51.454;6.736;2022-11-28T06:55:13;12.30;;;10.20;;
5351;SDS011;2698;51.454;6.736;2022-11-28T06:57:41;26.03;;;10.20;;
5351;SDS011;2698;51.454;6.736;2022-11-28T07:00:09;26.13;;;11.87;;
5351;SDS011;2698;51.454;6.736;2022-11-28T07:02:36;14.97;;;9.77;;
5351;SDS011;2698;51.454;6.736;2022-11-28T07:05:05;16.67;;;10.70;;
5351;SDS011;2698;51.454;6.736;2022-11-28T07:07:32;29.97;;;12.73;;
5351;SDS011;2698;51.454;6.736;2022-11-28T07:09:59;19.77;;;12.43;;
5351;SDS011;2698;51.454;6.736;2022-11-28T07:12:26;20.97;;;11.40;;
5351;SDS011;2698;51.454;6.736;2022-11-28T07:14:53;23.77;;;12.77;;
5351;SDS011;2698;51.454;6.736;2022-11-28T07:17:19;33.20;;;14.57;;
5351;SDS011;2698;51.454;6.736;2022-11-28T07:19:47;36.40;;;15.13;;
5351;SDS011;2698;51.454;6.736;2022-11-28T07:22:15;35.37;;;14.80;;
5351;SDS011;2698;51.454;6.736;2022-11-28T07:24:41;42.20;;;13.27;;
5351;SDS011;2698;51.454;6.736;2022-11-28T07:27:08;30.37;;;13.60;;
5351;SDS011;2698;51.454;6.736;2022-11-28T07:29:35;21.87;;;11.43;;
5351;SDS011;2698;51.454;6.736;2022-11-28T07:32:02;20.60;;;11.13;;
5351;SDS011;2698;51.454;6.736;2022-11-28T07:34:30;26.83;;;11.27;;
5351;SDS011;2698;51.454;6.736;2022-11-28T07:36:57;16.40;;;9.23;;
5351;SDS011;2698;51.454;6.736;2022-11-28T07:39:25;17.83;;;9.40;;
5351;SDS011;2698;51.454;6.736;2022-11-28T07:41:52;11.83;;;9.00;;
5351;SDS011;2698;51.454;6.736;2022-11-28T07:44:19;11.07;;;8.43;;
5351;SDS011;2698;51.454;6.736;2022-11-28T07:46:45;14.83;;;9.60;;
5351;SDS011;2698;51.454;6.736;2022-11-28T07:49:12;15.87;;;8.63;;
5351;SDS011;2698;51.454;6.736;2022-11-28T07:51:40;13.87;;;9.40;;
5351;SDS011;2698;51.454;6.736;2022-11-28T07:54:07;12.67;;;9.23;;
5351;SDS011;2698;51.454;6.736;2022-11-28T07:56:36;14.07;;;9.83;;
5351;SDS011;2698;51.454;6.736;2022-11-28T07:59:04;11.13;;;9.80;;
5351;SDS011;2698;51.454;6.736;2022-11-28T08:01:32;13.50;;;8.27;;
5351;SDS011;2698;51.454;6.736;2022-11-28T08:04:00;12.90;;;9.30;;
5351;SDS011;2698;51.454;6.736;2022-11-28T08:06:29;13.27;;;9.47;;
5351;SDS011;2698;51.454;6.736;2022-11-28T08:08:56;17.83;;;10.03;;
5351;SDS011;2698;51.454;6.736;2022-11-28T08:11:25;11.10;;;9.73;;
5351;SDS011;2698;51.454;6.736;2022-11-28T08:13:55;13.67;;;10.03;;
5351;SDS011;2698;51.454;6.736;2022-11-28T08:16:22;16.60;;;10.27;;
5351;SDS011;2698;51.454;6.736;2022-11-28T08:18:51;17.50;;;11.10;;
5351;SDS011;2698;51.454;6.736;2022-11-28T08:21:19;14.73;;;10.33;;
5351;SDS011;2698;51.454;6.736;2022-11-28T08:23:48;18.00;;;10.47;;
5351;SDS011;2698;51.454;6.736;2022-11-28T08:26:17;16.60;;;11.17;;
5351;SDS011;2698;51.454;6.736;2022-11-28T08:28:45;15.70;;;9.80;;
5351;SDS011;2698;51.454;6.736;2022-11-28T08:31:14;12.57;;;9.37;;
5351;SDS011;2698;51.454;6.736;2022-11-28T08:33:42;20.63;;;9.83;;
5351;SDS011;2698;51.454;6.736;2022-11-28T08:36:11;13.93;;;9.20;;
5351;SDS011;2698;51.454;6.736;2022-11-28T08:38:39;12.80;;;9.27;;
5351;SDS011;2698;51.454;6.736;2022-11-28T08:41:08;13.37;;;10.70;;
5351;SDS011;2698;51.454;6.736;2022-11-28T08:43:37;12.83;;;9.90;;
5351;SDS011;2698;51.454;6.736;2022-11-28T08:46:04;14.43;;;9.00;;
5351;SDS011;2698;51.454;6.736;2022-11-28T08:48:34;15.13;;;10.00;;
5351;SDS011;2698;51.454;6.736;2022-11-28T08:51:01;11.93;;;8.20;;
5351;SDS011;2698;51.454;6.736;2022-11-28T08:53:29;14.50;;;9.90;;
5351;SDS011;2698;51.454;6.736;2022-11-28T08:55:55;10.70;;;8.80;;
5351;SDS011;2698;51.454;6.736;2022-11-28T08:58:22;17.20;;;9.50;;
5351;SDS011;2698;51.454;6.736;2022-11-28T09:00:49;11.73;;;9.80;;
5351;SDS011;2698;51.454;6.736;2022-11-28T09:03:16;15.07;;;9.73;;
5351;SDS011;2698;51.454;6.736;2022-11-28T09:05:45;10.07;;;9.00;;
5351;SDS011;2698;51.454;6.736;2022-11-28T09:08:13;11.60;;;9.70;;
5351;SDS011;2698;51.454;6.736;2022-11-28T09:10:40;9.00;;;8.10;;
5351;SDS011;2698;51.454;6.736;2022-11-28T09:13:08;10.67;;;8.07;;
5351;SDS011;2698;51.454;6.736;2022-11-28T09:15:38;11.40;;;8.17;;
5351;SDS011;2698;51.454;6.736;2022-11-28T09:18:05;13.77;;;10.10;;
5351;SDS011;2698;51.454;6.736;2022-11-28T09:20:32;11.80;;;9.03;;
5351;SDS011;2698;51.454;6.736;2022-11-28T09:23:00;15.93;;;10.53;;
5351;SDS011;2698;51.454;6.736;2022-11-28T09:25:27;12.53;;;9.37;;
5351;SDS011;2698;51.454;6.736;2022-11-28T09:27:54;15.30;;;10.10;;
5351;SDS011;2698;51.454;6.736;2022-11-28T09:30:20;18.10;;;10.70;;
5351;SDS011;2698;51.454;6.736;2022-11-28T09:32:48;13.10;;;10.77;;
5351;SDS011;2698;51.454;6.736;2022-11-28T09:35:15;16.67;;;12.03;;
5351;SDS011;2698;51.454;6.736;2022-11-28T09:37:42;18.70;;;13.17;;
5351;SDS011;2698;51.454;6.736;2022-11-28T09:40:14;19.93;;;15.50;;
5351;SDS011;2698;51.454;6.736;2022-11-28T09:42:43;19.27;;;15.10;;
5351;SDS011;2698;51.454;6.736;2022-11-28T09:45:12;22.03;;;16.20;;
5351;SDS011;2698;51.454;6.736;2022-11-28T09:47:41;23.67;;;17.70;;
5351;SDS011;2698;51.454;6.736;2022-11-28T09:50:13;30.20;;;18.80;;
5351;SDS011;2698;51.454;6.736;2022-11-28T09:52:43;25.37;;;19.90;;
5351;SDS011;2698;51.454;6.736;2022-11-28T09:55:17;32.83;;;21.73;;
5351;SDS011;2698;51.454;6.736;2022-11-28T09:57:51;32.87;;;22.50;;
5351;SDS011;2698;51.454;6.736;2022-11-28T10:00:24;43.47;;;27.27;;
5351;SDS011;2698;51.454;6.736;2022-11-28T10:03:06;33.80;;;24.30;;
5351;SDS011;2698;51.454;6.736;2022-11-28T10:05:44;35.40;;;24.37;;
5351;SDS011;2698;51.454;6.736;2022-11-28T10:08:20;38.37;;;24.83;;
5351;SDS011;2698;51.454;6.736;2022-11-28T10:10:58;37.00;;;26.47;;
5351;SDS011;2698;51.454;6.736;2022-11-28T10:13:32;36.83;;;26.73;;
5351;SDS011;2698;51.454;6.736;2022-11-28T10:16:08;42.13;;;27.60;;
5351;SDS011;2698;51.454;6.736;2022-11-28T10:18:39;35.40;;;28.03;;
5351;SDS011;2698;51.454;6.736;2022-11-28T10:21:17;38.87;;;26.73;;
5351;SDS011;2698;51.454;6.736;2022-11-28T10:23:50;43.03;;;29.97;;
5351;SDS011;2698;51.454;6.736;2022-11-28T10:26:25;45.37;;;27.43;;
5351;SDS011;2698;51.454;6.736;2022-11-28T10:28:56;43.07;;;31.00;;
5351;SDS011;2698;51.454;6.736;2022-11-28T10:31:28;46.50;;;31.03;;
5351;SDS011;2698;51.454;6.736;2022-11-28T10:34:00;42.20;;;28.77;;
5351;SDS011;2698;51.454;6.736;2022-11-28T10:36:32;47.33;;;32.57;;
5351;SDS011;2698;51.454;6.736;2022-11-28T10:39:07;37.83;;;28.97;;
5351;SDS011;2698;51.454;6.736;2022-11-28T10:41:39;43.57;;;31.33;;
5351;SDS011;2698;51.454;6.736;2022-11-28T10:44:35;47.20;;;29.43;;
5351;SDS011;2698;51.454;6.736;2022-11-28T10:47:12;34.53;;;26.20;;
5351;SDS011;2698;51.454;6.736;2022-11-28T10:49:47;35.23;;;26.67;;
5351;SDS011;2698;51.454;6.736;2022-11-28T10:52:20;37.10;;;25.33;;
5351;SDS011;2698;51.454;6.736;2022-11-28T10:57:47;34.80;;;22.70;;
5351;SDS011;2698;51.454;6.736;2022-11-28T11:00:21;28.40;;;20.77;;
5351;SDS011;2698;51.454;6.736;2022-11-28T11:02:48;31.83;;;22.70;;
5351;SDS011;2698;51.454;6.736;2022-11-28T11:05:16;30.27;;;20.33;;
5351;SDS011;2698;51.454;6.736;2022-11-28T11:07:47;28.83;;;20.33;;
5351;SDS011;2698;51.454;6.736;2022-11-28T11:10:17;24.07;;;19.07;;
5351;SDS011;2698;51.454;6.736;2022-11-28T11:12:46;38.43;;;20.20;;
5351;SDS011;2698;51.454;6.736;2022-11-28T11:15:17;31.90;;;17.77;;
5351;SDS011;2698;51.454;6.736;2022-11-28T11:17:48;25.30;;;17.37;;
5351;SDS011;2698;51.454;6.736;2022-11-28T11:20:26;25.83;;;18.23;;
5351;SDS011;2698;51.454;6.736;2022-11-28T11:22:57;28.40;;;17.80;;
5351;SDS011;2698;51.454;6.736;2022-11-28T11:25:25;22.10;;;15.47;;
5351;SDS011;2698;51.454;6.736;2022-11-28T11:27:55;18.50;;;11.83;;
5351;SDS011;2698;51.454;6.736;2022-11-28T11:30:26;21.83;;;13.90;;
5351;SDS011;2698;51.454;6.736;2022-11-28T11:32:54;17.00;;;12.97;;
5351;SDS011;2698;51.454;6.736;2022-11-28T11:35:23;18.47;;;13.23;;
5351;SDS011;2698;51.454;6.736;2022-11-28T11:37:51;17.57;;;12.83;;
5351;SDS011;2698;51.454;6.736;2022-11-28T11:40:21;20.13;;;13.27;;
5351;SDS011;2698;51.454;6.736;2022-11-28T11:42:52;18.20;;;12.90;;
5351;SDS011;2698;51.454;6.736;2022-11-28T11:45:23;18.03;;;12.87;;
5351;SDS011;2698;51.454;6.736;2022-11-28T11:47:55;21.40;;;12.63;;
5351;SDS011;2698;51.454;6.736;2022-11-28T11:50:22;23.83;;;13.43;;
5351;SDS011;2698;51.454;6.736;2022-11-28T11:53:01;20.43;;;13.50;;
5351;SDS011;2698;51.454;6.736;2022-11-28T11:55:31;15.00;;;11.53;;
5351;SDS011;2698;51.454;6.736;2022-11-28T11:58:03;19.30;;;13.10;;
5351;SDS011;2698;51.454;6.736;2022-11-28T12:00:33;25.53;;;13.27;;
5351;SDS011;2698;51.454;6.736;2022-11-28T12:03:03;15.60;;;11.27;;
5351;SDS011;2698;51.454;6.736;2022-11-28T12:05:38;21.37;;;14.23;;
5351;SDS011;2698;51.454;6.736;2022-11-28T12:08:15;19.33;;;13.43;;
5351;SDS011;2698;51.454;6.736;2022-11-28T12:10:49;22.60;;;12.70;;
5351;SDS011;2698;51.454;6.736;2022-11-28T12:13:20;17.00;;;11.67;;
5351;SDS011;2698;51.454;6.736;2022-11-28T12:15:51;23.10;;;13.27;;
5351;SDS011;2698;51.454;6.736;2022-11-28T12:18:25;23.90;;;12.43;;
5351;SDS011;2698;51.454;6.736;2022-11-28T12:21:00;17.03;;;12.53;;
5351;SDS011;2698;51.454;6.736;2022-11-28T12:23:42;24.67;;;12.87;;
5351;SDS011;2698;51.454;6.736;2022-11-28T12:26:20;20.33;;;13.40;;
5351;SDS011;2698;51.454;6.736;2022-11-28T12:28:57;19.53;;;12.93;;
5351;SDS011;2698;51.454;6.736;2022-11-28T12:31:35;14.47;;;12.40;;
5351;SDS011;2698;51.454;6.736;2022-11-28T12:34:13;15.13;;;11.73;;
5351;SDS011;2698;51.454;6.736;2022-11-28T12:36:50;21.57;;;13.40;;
5351;SDS011;2698;51.454;6.736;2022-11-28T12:39:26;19.10;;;11.90;;
5351;SDS011;2698;51.454;6.736;2022-11-28T12:42:19;23.73;;;12.80;;
5351;SDS011;2698;51.454;6.736;2022-11-28T12:45:04;16.80;;;12.23;;
5351;SDS011;2698;51.454;6.736;2022-11-28T12:47:50;21.07;;;14.30;;
5351;SDS011;2698;51.454;6.736;2022-11-28T12:50:28;23.67;;;12.30;;
5351;SDS011;2698;51.454;6.736;2022-11-28T12:53:02;20.90;;;14.70;;
5351;SDS011;2698;51.454;6.736;2022-11-28T12:55:42;24.93;;;15.53;;
5351;SDS011;2698;51.454;6.736;2022-11-28T12:58:18;32.27;;;15.00;;
5351;SDS011;2698;51.454;6.736;2022-11-28T13:00:52;30.93;;;14.50;;
5351;SDS011;2698;51.454;6.736;2022-11-28T13:03:33;25.23;;;14.10;;
5351;SDS011;2698;51.454;6.736;2022-11-28T13:06:08;24.20;;;16.07;;
5351;SDS011;2698;51.454;6.736;2022-11-28T13:11:46;18.43;;;15.37;;
5351;SDS011;2698;51.454;6.736;2022-11-28T13:14:22;32.63;;;16.10;;
5351;SDS011;2698;51.454;6.736;2022-11-28T13:16:59;26.50;;;15.50;;
5351;SDS011;2698;51.454;6.736;2022-11-28T13:19:32;22.40;;;15.93;;
5351;SDS011;2698;51.454;6.736;2022-11-28T13:22:09;22.50;;;14.17;;
5351;SDS011;2698;51.454;6.736;2022-11-28T13:24:41;19.10;;;15.37;;
5351;SDS011;2698;51.454;6.736;2022-11-28T13:27:16;18.67;;;15.50;;
5351;SDS011;2698;51.454;6.736;2022-11-28T13:29:51;25.53;;;15.40;;
5351;SDS011;2698;51.454;6.736;2022-11-28T13:32:29;21.87;;;14.80;;
5351;SDS011;2698;51.454;6.736;2022-11-28T13:35:02;23.70;;;15.03;;
5351;SDS011;2698;51.454;6.736;2022-11-28T13:37:30;20.10;;;14.70;;
5351;SDS011;2698;51.454;6.736;2022-11-28T13:40:05;19.20;;;14.27;;
5351;SDS011;2698;51.454;6.736;2022-11-28T13:42:43;19.00;;;14.60;;
5351;SDS011;2698;51.454;6.736;2022-11-28T13:45:18;23.40;;;14.23;;
5351;SDS011;2698;51.454;6.736;2022-11-28T13:47:47;25.90;;;14.17;;
5351;SDS011;2698;51.454;6.736;2022-11-28T13:50:30;18.10;;;13.70;;
5351;SDS011;2698;51.454;6.736;2022-11-28T13:53:03;19.27;;;13.83;;
5351;SDS011;2698;51.454;6.736;2022-11-28T13:55:46;22.10;;;14.87;;
5351;SDS011;2698;51.454;6.736;2022-11-28T13:58:15;21.70;;;14.50;;
5351;SDS011;2698;51.454;6.736;2022-11-28T14:00:57;24.67;;;14.80;;
5351;SDS011;2698;51.454;6.736;2022-11-28T14:03:31;21.90;;;13.73;;
5351;SDS011;2698;51.454;6.736;2022-11-28T14:06:00;24.83;;;14.10;;
5351;SDS011;2698;51.454;6.736;2022-11-28T14:08:30;19.80;;;13.30;;
5351;SDS011;2698;51.454;6.736;2022-11-28T14:11:10;16.30;;;13.23;;
5351;SDS011;2698;51.454;6.736;2022-11-28T14:14:07;14.13;;;12.43;;
5351;SDS011;2698;51.454;6.736;2022-11-28T14:16:52;18.47;;;14.40;;
5351;SDS011;2698;51.454;6.736;2022-11-28T14:19:36;25.07;;;14.57;;
5351;SDS011;2698;51.454;6.736;2022-11-28T14:22:24;18.70;;;14.13;;
5351;SDS011;2698;51.454;6.736;2022-11-28T14:24:59;23.73;;;15.33;;
5351;SDS011;2698;51.454;6.736;2022-11-28T14:27:33;25.27;;;15.80;;
5351;SDS011;2698;51.454;6.736;2022-11-28T14:30:03;22.90;;;15.50;;
5351;SDS011;2698;51.454;6.736;2022-11-28T14:32:32;24.03;;;15.90;;
5351;SDS011;2698;51.454;6.736;2022-11-28T14:35:03;25.90;;;17.40;;
5351;SDS011;2698;51.454;6.736;2022-11-28T14:37:35;25.33;;;16.57;;
5351;SDS011;2698;51.454;6.736;2022-11-28T14:43:30;18.80;;;14.60;;
5351;SDS011;2698;51.454;6.736;2022-11-28T14:49:19;21.17;;;15.27;;
5351;SDS011;2698;51.454;6.736;2022-11-28T14:54:51;16.90;;;13.63;;
5351;SDS011;2698;51.454;6.736;2022-11-28T14:57:21;16.37;;;13.50;;
5351;SDS011;2698;51.454;6.736;2022-11-28T14:59:50;17.57;;;14.30;;
5351;SDS011;2698;51.454;6.736;2022-11-28T15:02:22;18.23;;;15.60;;
5351;SDS011;2698;51.454;6.736;2022-11-28T15:05:11;27.70;;;16.37;;
5351;SDS011;2698;51.454;6.736;2022-11-28T15:08:07;17.17;;;14.33;;
5351;SDS011;2698;51.454;6.736;2022-11-28T15:11:06;18.60;;;15.00;;
5351;SDS011;2698;51.454;6.736;2022-11-28T15:13:47;16.67;;;14.00;;
5351;SDS011;2698;51.454;6.736;2022-11-28T15:16:27;19.10;;;12.57;;
5351;SDS011;2698;51.454;6.736;2022-11-28T15:18:57;22.40;;;14.30;;
5351;SDS011;2698;51.454;6.736;2022-11-28T15:21:43;26.37;;;15.47;;
5351;SDS011;2698;51.454;6.736;2022-11-28T15:24:21;20.30;;;13.87;;
5351;SDS011;2698;51.454;6.736;2022-11-28T15:26:51;25.43;;;14.50;;
5351;SDS011;2698;51.454;6.736;2022-11-28T15:29:19;24.20;;;16.83;;
5351;SDS011;2698;51.454;6.736;2022-11-28T15:31:47;27.80;;;15.80;;
5351;SDS011;2698;51.454;6.736;2022-11-28T15:34:20;23.97;;;15.93;;
5351;SDS011;2698;51.454;6.736;2022-11-28T15:36:50;21.50;;;16.27;;
5351;SDS011;2698;51.454;6.736;2022-11-28T15:39:22;29.03;;;17.37;;